createdAt,value
2022-10-22T00:02:23.940Z,20.42
2022-10-22T00:04:51.064Z,20.30
2022-10-22T00:07:19.137Z,19.58
2022-10-22T00:09:46.616Z,21.05
2022-10-22T00:12:15.559Z,21.50
2022-10-22T00:14:42.875Z,21.48
2022-10-22T00:17:11.479Z,22.98
2022-10-22T00:19:39.436Z,21.77
2022-10-22T00:22:06.686Z,18.63
2022-10-22T00:24:34.431Z,21.70
2022-10-22T00:27:01.697Z,20.70
2022-10-22T00:29:28.763Z,20.83
2022-10-22T00:31:59.005Z,18.70
2022-10-22T00:34:25.689Z,22.00
2022-10-22T00:36:52.868Z,17.15
2022-10-22T00:39:21.813Z,22.30
2022-10-22T00:41:50.090Z,19.38
2022-10-22T00:44:54.528Z,18.48
2022-10-22T00:47:23.952Z,18.70
2022-10-22T00:49:53.008Z,17.80
2022-10-22T00:52:20.071Z,19.42
2022-10-22T00:54:46.878Z,20.15
2022-10-22T00:57:14.429Z,18.58
2022-10-22T00:59:41.074Z,19.73
2022-10-22T01:02:07.657Z,18.20
2022-10-22T01:04:34.321Z,19.50
2022-10-22T01:07:01.478Z,21.58
2022-10-22T01:09:41.826Z,19.20
2022-10-22T01:12:21.558Z,20.15
2022-10-22T01:15:06.903Z,19.58
2022-10-22T01:17:42.186Z,18.50
2022-10-22T01:20:25.946Z,19.33
2022-10-22T01:23:10.288Z,16.98
2022-10-22T01:26:01.777Z,19.90
2022-10-22T01:29:05.823Z,20.42
2022-10-22T01:31:38.420Z,17.08
2022-10-22T01:34:08.391Z,19.77
2022-10-22T01:36:37.717Z,17.65
2022-10-22T01:39:05.746Z,18.98
2022-10-22T01:41:32.416Z,19.88
2022-10-22T01:43:58.985Z,19.48
2022-10-22T01:46:27.904Z,22.33
2022-10-22T01:49:12.903Z,20.58
2022-10-22T01:51:51.893Z,17.25
2022-10-22T01:54:36.583Z,21.50
2022-10-22T01:57:20.812Z,17.75
2022-10-22T02:00:01.819Z,19.17
2022-10-22T02:02:49.768Z,19.92
2022-10-22T02:05:27.456Z,19.48
2022-10-22T02:08:08.858Z,21.65
2022-10-22T02:10:39.728Z,23.45
2022-10-22T02:13:12.528Z,18.77
2022-10-22T02:15:40.695Z,22.58
2022-10-22T02:18:09.492Z,14.20
2022-10-22T02:20:39.040Z,19.75
2022-10-22T02:23:06.016Z,20.65
2022-10-22T02:25:37.368Z,17.88
2022-10-22T02:28:19.875Z,23.77
2022-10-22T02:30:54.049Z,21.85
2022-10-22T02:33:35.324Z,22.83
2022-10-22T02:36:03.124Z,21.92
2022-10-22T02:38:30.833Z,19.48
2022-10-22T02:40:57.906Z,21.90
2022-10-22T02:43:25.662Z,20.85
2022-10-22T02:45:52.443Z,20.90
2022-10-22T02:51:06.156Z,19.52
2022-10-22T02:53:32.831Z,24.23
2022-10-22T02:56:00.320Z,21.02
2022-10-22T02:58:26.928Z,22.45
2022-10-22T03:00:53.541Z,21.60
2022-10-22T03:03:20.139Z,22.33
2022-10-22T03:05:46.714Z,19.20
2022-10-22T03:08:13.280Z,25.17
2022-10-22T03:10:39.869Z,21.73
2022-10-22T03:13:06.511Z,19.55
2022-10-22T03:15:33.200Z,20.42
2022-10-22T03:17:59.776Z,24.42
2022-10-22T03:20:26.487Z,23.98
2022-10-22T03:22:53.286Z,22.00
2022-10-22T03:25:24.214Z,20.77
2022-10-22T03:27:52.639Z,22.30
2022-10-22T03:30:19.481Z,22.70
2022-10-22T03:32:46.115Z,23.30
2022-10-22T03:35:12.770Z,22.67
2022-10-22T03:37:40.219Z,25.25
2022-10-22T03:40:08.545Z,23.27
2022-10-22T03:42:35.302Z,24.33
2022-10-22T03:45:02.249Z,24.30
2022-10-22T03:47:28.893Z,23.73
2022-10-22T03:49:55.766Z,23.67
2022-10-22T03:52:22.363Z,23.48
2022-10-22T03:54:48.976Z,26.70
2022-10-22T03:57:16.099Z,24.10
2022-10-22T03:59:45.054Z,27.98
2022-10-22T04:02:13.611Z,24.95
2022-10-22T04:04:40.382Z,29.35
2022-10-22T04:07:07.573Z,23.02
2022-10-22T04:09:35.230Z,22.60
2022-10-22T04:12:02.064Z,23.63
2022-10-22T04:14:28.694Z,27.45
2022-10-22T04:16:56.684Z,22.15
2022-10-22T04:19:23.351Z,23.63
2022-10-22T04:21:49.997Z,23.85
2022-10-22T04:24:16.621Z,25.20
2022-10-22T04:26:43.386Z,23.40
2022-10-22T04:29:13.444Z,19.05
2022-10-22T04:31:42.719Z,24.48
2022-10-22T04:34:09.259Z,22.00
2022-10-22T04:36:35.880Z,23.38
2022-10-22T04:39:03.482Z,19.55
2022-10-22T04:41:33.252Z,20.70
2022-10-22T04:44:00.846Z,22.58
2022-10-22T04:46:30.138Z,24.70
2022-10-22T04:48:56.902Z,20.15
2022-10-22T04:51:25.490Z,23.30
2022-10-22T04:53:52.169Z,23.83
2022-10-22T04:56:21.990Z,25.27
2022-10-22T04:58:50.907Z,20.25
2022-10-22T05:01:23.138Z,23.05
2022-10-22T05:03:51.532Z,21.45
2022-10-22T05:06:20.981Z,26.08
2022-10-22T05:08:48.539Z,22.52
2022-10-22T05:11:23.104Z,22.73
2022-10-22T05:13:49.707Z,23.67
2022-10-22T05:16:16.378Z,24.38
2022-10-22T05:18:44.800Z,24.50
2022-10-22T05:21:16.513Z,24.08
2022-10-22T05:23:44.272Z,25.00
2022-10-22T05:26:13.534Z,24.40
2022-10-22T05:28:40.250Z,22.25
2022-10-22T05:31:08.876Z,24.10
2022-10-22T05:33:35.735Z,20.80
2022-10-22T05:36:04.099Z,22.00
2022-10-22T05:38:32.666Z,20.77
2022-10-22T05:41:04.980Z,24.10
2022-10-22T05:43:31.701Z,23.40
2022-10-22T05:46:04.153Z,19.60
2022-10-22T05:51:18.321Z,20.17
2022-10-22T05:53:45.079Z,21.77
2022-10-22T05:56:16.967Z,18.17
2022-10-22T05:58:45.060Z,21.73
2022-10-22T06:01:15.172Z,22.75
2022-10-22T06:03:42.714Z,23.38
2022-10-22T06:06:22.771Z,22.50
2022-10-22T06:08:51.383Z,19.70
2022-10-22T06:11:19.465Z,21.60
2022-10-22T06:13:46.498Z,18.75
2022-10-22T06:16:13.205Z,20.17
2022-10-22T06:18:40.023Z,20.05
2022-10-22T06:21:09.209Z,19.85
2022-10-22T06:23:36.879Z,26.83
2022-10-22T06:26:04.552Z,20.42
2022-10-22T06:28:31.646Z,17.75
2022-10-22T06:31:02.752Z,21.48
2022-10-22T06:33:29.958Z,22.45
2022-10-22T06:36:07.404Z,20.83
2022-10-22T06:38:34.529Z,23.13
2022-10-22T06:41:09.753Z,21.48
2022-10-22T06:43:37.117Z,22.33
2022-10-22T06:46:07.447Z,17.67
2022-10-22T06:48:36.199Z,18.58
2022-10-22T06:51:05.091Z,23.65
2022-10-22T06:53:32.315Z,22.27
2022-10-22T06:55:59.030Z,23.90
2022-10-22T06:58:25.674Z,23.67
2022-10-22T07:01:05.266Z,23.23
2022-10-22T07:03:32.688Z,21.20
2022-10-22T07:06:05.010Z,20.48
2022-10-22T07:08:31.702Z,23.80
2022-10-22T07:11:10.211Z,20.58
2022-10-22T07:13:38.820Z,21.88
2022-10-22T07:16:07.302Z,23.60
2022-10-22T07:18:34.283Z,20.15
2022-10-22T07:21:02.437Z,23.50
2022-10-22T07:23:29.576Z,22.40
2022-10-22T07:28:43.468Z,18.63
2022-10-22T07:31:11.925Z,21.30
2022-10-22T07:33:39.339Z,21.60
2022-10-22T07:36:10.515Z,21.95
2022-10-22T07:38:37.931Z,22.95
2022-10-22T07:41:04.728Z,24.30
2022-10-22T07:43:31.509Z,25.70
2022-10-22T07:46:00.495Z,23.35
2022-10-22T07:48:27.146Z,21.38
2022-10-22T07:50:54.243Z,22.70
2022-10-22T07:53:21.562Z,24.83
2022-10-22T07:55:50.154Z,26.17
2022-10-22T07:58:18.397Z,24.80
2022-10-22T08:00:45.667Z,24.17
2022-10-22T08:03:13.168Z,26.30
2022-10-22T08:05:40.243Z,24.35
2022-10-22T08:08:07.322Z,23.33
2022-10-22T08:10:35.166Z,26.67
2022-10-22T08:13:01.830Z,26.02
2022-10-22T08:15:28.479Z,21.05
2022-10-22T08:17:55.194Z,27.20
2022-10-22T08:20:21.836Z,24.13
2022-10-22T08:22:49.925Z,25.95
2022-10-22T08:25:18.560Z,24.33
2022-10-22T08:27:45.766Z,23.38
2022-10-22T08:30:13.278Z,24.88
2022-10-22T08:32:40.319Z,22.73
2022-10-22T08:35:07.238Z,24.08
2022-10-22T08:37:33.929Z,24.08
2022-10-22T08:40:00.521Z,26.95
2022-10-22T08:42:49.026Z,23.10
2022-10-22T08:45:23.144Z,26.17
2022-10-22T08:48:22.406Z,29.88
2022-10-22T08:50:52.716Z,25.67
2022-10-22T08:53:25.514Z,29.38
2022-10-22T08:55:54.061Z,24.17
2022-10-22T08:58:39.400Z,20.73
2022-10-22T09:01:20.153Z,21.38
2022-10-22T09:03:53.569Z,20.73
2022-10-22T09:06:24.523Z,23.95
2022-10-22T09:08:52.833Z,22.45
2022-10-22T09:11:38.479Z,23.85
2022-10-22T09:14:06.181Z,23.07
2022-10-22T09:16:43.114Z,24.77
2022-10-22T09:19:17.004Z,21.88
2022-10-22T09:22:01.975Z,26.40
2022-10-22T09:24:40.153Z,20.58
2022-10-22T09:27:25.821Z,24.10
2022-10-22T09:29:52.477Z,22.57
2022-10-22T09:32:19.576Z,27.00
2022-10-22T09:34:50.718Z,25.30
2022-10-22T09:37:24.954Z,25.42
2022-10-22T09:39:56.476Z,24.83
2022-10-22T09:42:23.867Z,30.02
2022-10-22T09:44:56.387Z,26.27
2022-10-22T09:47:49.996Z,28.77
2022-10-22T09:50:41.236Z,30.35
2022-10-22T09:53:27.463Z,29.73
2022-10-22T09:56:01.431Z,26.05
2022-10-22T09:58:28.387Z,24.27
2022-10-22T10:00:58.245Z,25.35
2022-10-22T10:03:28.070Z,28.67
2022-10-22T10:06:01.399Z,25.95
2022-10-22T10:08:31.758Z,24.65
2022-10-22T10:11:09.126Z,24.02
2022-10-22T10:13:48.050Z,26.05
2022-10-22T10:16:23.808Z,33.60
2022-10-22T10:19:08.579Z,25.20
2022-10-22T10:21:45.370Z,26.35
2022-10-22T10:24:20.173Z,24.55
2022-10-22T10:26:55.674Z,24.77
2022-10-22T10:29:34.965Z,27.45
2022-10-22T10:32:26.609Z,27.30
2022-10-22T10:35:34.431Z,25.58
2022-10-22T10:38:24.624Z,26.58
2022-10-22T10:41:18.062Z,31.30
2022-10-22T10:44:10.766Z,25.23
2022-10-22T10:46:55.348Z,26.52
2022-10-22T10:49:33.377Z,24.63
2022-10-22T10:52:14.413Z,27.05
2022-10-22T10:54:58.733Z,30.95
2022-10-22T10:57:32.433Z,31.30
2022-10-22T11:00:20.160Z,30.88
2022-10-22T11:03:25.382Z,35.97
2022-10-22T11:06:00.740Z,36.38
2022-10-22T11:08:35.805Z,35.67
2022-10-22T11:11:38.800Z,29.25
2022-10-22T11:14:18.594Z,36.50
2022-10-22T11:16:54.456Z,34.63
2022-10-22T11:19:51.664Z,31.20
2022-10-22T11:22:29.526Z,30.13
2022-10-22T11:25:21.522Z,29.80
2022-10-22T11:27:51.593Z,31.45
2022-10-22T11:30:21.103Z,32.75
2022-10-22T11:32:52.482Z,29.75
2022-10-22T11:35:28.438Z,29.58
2022-10-22T11:40:35.901Z,30.48
2022-10-22T11:43:08.158Z,24.80
2022-10-22T11:45:37.226Z,29.48
2022-10-22T11:48:09.670Z,32.28
2022-10-22T11:51:00.320Z,32.58
2022-10-22T11:53:39.248Z,28.60
2022-10-22T11:56:10.614Z,35.08
2022-10-22T11:58:39.321Z,29.95
2022-10-22T12:01:08.652Z,33.33
2022-10-22T12:03:35.183Z,21.45
2022-10-22T12:06:15.744Z,25.83
2022-10-22T12:08:52.379Z,22.02
2022-10-22T12:11:26.178Z,20.42
2022-10-22T12:14:04.580Z,17.52
2022-10-22T12:16:54.695Z,21.60
2022-10-22T12:19:20.464Z,19.98
2022-10-22T12:21:52.213Z,20.95
2022-10-22T12:24:22.317Z,17.55
2022-10-22T12:26:52.864Z,18.15
2022-10-22T12:29:26.689Z,14.45
2022-10-22T12:31:54.297Z,12.63
2022-10-22T12:34:25.030Z,14.95
2022-10-22T12:36:53.516Z,11.63
2022-10-22T12:39:25.251Z,9.23
2022-10-22T12:41:53.398Z,10.75
2022-10-22T12:44:20.479Z,8.55
2022-10-22T12:46:52.912Z,8.95
2022-10-22T12:49:29.742Z,9.68
2022-10-22T12:52:03.149Z,7.50
2022-10-22T12:54:32.204Z,9.02
2022-10-22T12:57:00.537Z,7.47
2022-10-22T12:59:30.844Z,9.93
2022-10-22T13:01:57.981Z,7.63
2022-10-22T13:04:36.511Z,11.23
2022-10-22T13:07:12.032Z,11.65
2022-10-22T13:09:40.240Z,11.82
2022-10-22T13:12:10.770Z,9.23
2022-10-22T13:14:38.727Z,11.13
2022-10-22T13:17:06.710Z,12.73
2022-10-22T13:19:41.165Z,10.93
2022-10-22T13:22:30.069Z,10.32
2022-10-22T13:24:59.971Z,9.25
2022-10-22T13:27:28.570Z,9.65
2022-10-22T13:29:56.888Z,9.95
2022-10-22T13:32:31.913Z,9.55
2022-10-22T13:35:00.614Z,10.80
2022-10-22T13:37:30.063Z,10.50
2022-10-22T13:39:56.821Z,10.52
2022-10-22T13:42:23.718Z,11.45
2022-10-22T13:44:50.342Z,11.35
2022-10-22T13:47:37.232Z,14.38
2022-10-22T13:50:11.186Z,11.95
2022-10-22T13:52:49.900Z,13.63
2022-10-22T13:55:29.622Z,11.85
2022-10-22T14:01:08.895Z,12.60
2022-10-22T14:03:37.942Z,17.10
2022-10-22T14:06:11.511Z,16.17
2022-10-22T14:08:38.251Z,16.33
2022-10-22T14:11:04.925Z,13.50
2022-10-22T14:13:31.507Z,14.07
2022-10-22T14:15:58.100Z,14.13
2022-10-22T14:18:29.066Z,18.23
2022-10-22T14:20:58.831Z,13.18
2022-10-22T14:23:28.449Z,13.75
2022-10-22T14:25:55.532Z,15.52
2022-10-22T14:28:22.200Z,15.13
2022-10-22T14:30:49.722Z,18.17
2022-10-22T14:33:27.159Z,19.10
2022-10-22T14:35:57.068Z,20.10
2022-10-22T14:38:23.649Z,21.20
2022-10-22T14:40:50.782Z,20.25
2022-10-22T14:43:29.409Z,20.50
2022-10-22T14:45:56.086Z,19.45
2022-10-22T14:48:22.710Z,18.05
2022-10-22T14:50:49.506Z,18.80
2022-10-22T14:53:17.049Z,17.83
2022-10-22T14:55:47.276Z,18.30
2022-10-22T14:58:14.691Z,16.98
2022-10-22T15:00:42.649Z,17.23
2022-10-22T15:03:09.881Z,19.83
2022-10-22T15:05:36.532Z,20.60
2022-10-22T15:08:03.140Z,16.00
2022-10-22T15:10:29.838Z,19.48
2022-10-22T15:12:56.674Z,15.95
2022-10-22T15:15:24.576Z,19.60
2022-10-22T15:17:52.199Z,17.52
2022-10-22T15:20:18.795Z,18.92
2022-10-22T15:22:45.564Z,22.05
2022-10-22T15:25:13.794Z,19.92
2022-10-22T15:27:40.597Z,19.98
2022-10-22T15:30:08.397Z,19.45
2022-10-22T15:32:35.286Z,21.67
2022-10-22T15:35:02.796Z,19.73
2022-10-22T15:37:29.379Z,21.02
2022-10-22T15:39:55.930Z,22.88
2022-10-22T15:42:24.003Z,22.67
2022-10-22T15:44:58.107Z,22.65
2022-10-22T15:47:28.579Z,21.40
2022-10-22T15:49:55.367Z,21.33
2022-10-22T15:52:22.306Z,23.23
2022-10-22T15:54:49.003Z,24.40
2022-10-22T15:57:15.582Z,21.45
2022-10-22T15:59:42.222Z,23.90
2022-10-22T16:02:10.916Z,22.85
2022-10-22T16:04:38.468Z,23.98
2022-10-22T16:07:05.152Z,22.75
2022-10-22T16:09:31.779Z,21.80
2022-10-22T16:11:58.391Z,25.40
2022-10-22T16:14:25.055Z,23.45
2022-10-22T16:16:53.960Z,22.02
2022-10-22T16:19:22.450Z,20.02
2022-10-22T16:21:51.296Z,24.20
2022-10-22T16:24:19.135Z,23.38
2022-10-22T16:26:46.557Z,22.95
2022-10-22T16:29:13.265Z,22.23
2022-10-22T16:31:41.352Z,22.23
2022-10-22T16:34:08.157Z,23.65
2022-10-22T16:36:36.461Z,24.08
2022-10-22T16:39:04.467Z,27.10
2022-10-22T16:41:35.488Z,26.80
2022-10-22T16:44:08.018Z,22.55
2022-10-22T16:46:38.381Z,23.83
2022-10-22T16:49:06.519Z,22.38
2022-10-22T16:51:33.604Z,26.58
2022-10-22T16:54:00.255Z,22.73
2022-10-22T16:56:28.418Z,23.58
2022-10-22T16:58:57.111Z,23.77
2022-10-22T17:01:29.555Z,28.77
2022-10-22T17:03:59.329Z,24.70
2022-10-22T17:06:26.302Z,25.63
2022-10-22T17:08:55.264Z,21.70
2022-10-22T17:11:24.927Z,26.30
2022-10-22T17:13:54.054Z,23.98
2022-10-22T17:16:23.383Z,25.95
2022-10-22T17:18:50.445Z,28.38
2022-10-22T17:21:18.301Z,26.45
2022-10-22T17:23:45.819Z,24.17
2022-10-22T17:26:22.895Z,24.70
2022-10-22T17:28:50.117Z,23.90
2022-10-22T17:31:26.989Z,23.75
2022-10-22T17:33:56.549Z,22.20
2022-10-22T17:36:24.361Z,26.63
2022-10-22T17:38:55.043Z,24.42
2022-10-22T17:41:27.876Z,24.98
2022-10-22T17:43:57.083Z,32.30
2022-10-22T17:46:31.082Z,25.95
2022-10-22T17:49:01.856Z,26.38
2022-10-22T17:51:31.001Z,25.45
2022-10-22T17:53:57.866Z,28.00
2022-10-22T17:56:27.419Z,29.42
2022-10-22T17:58:54.633Z,30.55
2022-10-22T18:01:25.056Z,33.42
2022-10-22T18:03:53.470Z,29.27
2022-10-22T18:06:20.551Z,28.85
2022-10-22T18:08:47.253Z,34.67
2022-10-22T18:11:17.820Z,30.63
2022-10-22T18:13:47.699Z,34.45
2022-10-22T18:16:14.291Z,33.45
2022-10-22T18:18:40.881Z,36.42
2022-10-22T18:21:07.502Z,33.13
2022-10-22T18:23:34.215Z,33.25
2022-10-22T18:26:04.034Z,35.63
2022-10-22T18:28:30.625Z,36.13
2022-10-22T18:30:57.274Z,35.10
2022-10-22T18:33:25.223Z,32.30
2022-10-22T18:35:53.193Z,34.92
2022-10-22T18:38:23.729Z,33.60
2022-10-22T18:40:50.734Z,33.88
2022-10-22T18:43:17.933Z,31.17
2022-10-22T18:45:46.197Z,30.00
2022-10-22T18:48:14.831Z,33.70
2022-10-22T18:50:41.482Z,28.33
2022-10-22T18:53:08.359Z,26.40
2022-10-22T18:55:38.292Z,28.17
2022-10-22T18:58:04.837Z,28.60
2022-10-22T19:00:31.647Z,29.13
2022-10-22T19:02:58.407Z,29.35
2022-10-22T19:05:24.994Z,26.13
2022-10-22T19:07:51.676Z,24.25
2022-10-22T19:10:18.649Z,27.35
2022-10-22T19:12:45.558Z,24.05
2022-10-22T19:15:13.226Z,24.77
2022-10-22T19:17:42.506Z,24.63
2022-10-22T19:20:09.831Z,26.75
2022-10-22T19:22:36.487Z,26.55
2022-10-22T19:25:04.278Z,29.92
2022-10-22T19:27:33.162Z,27.05
2022-10-22T19:29:59.776Z,27.27
2022-10-22T19:32:30.142Z,25.02
2022-10-22T19:34:57.645Z,30.90
2022-10-22T19:37:24.478Z,24.05
2022-10-22T19:39:51.067Z,25.80
2022-10-22T19:42:17.652Z,26.77
2022-10-22T19:50:42.345Z,24.90
2022-10-22T19:53:09.018Z,31.35
2022-10-22T19:55:35.654Z,28.85
2022-10-22T19:58:02.273Z,27.23
2022-10-22T20:10:02.064Z,25.77
2022-10-22T20:12:42.839Z,35.33
2022-10-22T20:15:24.326Z,27.27
2022-10-22T20:17:53.444Z,29.30
2022-10-22T20:20:24.239Z,28.02
2022-10-22T20:22:52.878Z,31.02
2022-10-22T20:25:19.473Z,27.25
2022-10-22T20:27:48.715Z,25.92
2022-10-22T20:32:48.440Z,31.45
2022-10-22T20:35:15.983Z,28.15
2022-10-22T20:37:46.992Z,30.60
2022-10-22T20:40:13.568Z,29.08
2022-10-22T20:42:40.944Z,28.95
2022-10-22T20:45:08.444Z,30.67
2022-10-22T20:47:50.875Z,29.52
2022-10-22T20:50:29.885Z,27.52
2022-10-22T20:55:36.326Z,29.13
2022-10-22T20:58:03.032Z,24.55
2022-10-22T21:00:29.736Z,25.95
2022-10-22T21:05:49.300Z,25.50
2022-10-22T21:10:53.225Z,28.57
2022-10-22T21:13:19.826Z,23.92
2022-10-22T21:15:46.430Z,26.38
2022-10-22T21:18:13.008Z,28.45
2022-10-22T21:20:40.158Z,23.40
2022-10-22T21:23:07.090Z,24.95
2022-10-22T21:25:34.097Z,24.63
2022-10-22T21:28:00.800Z,24.58
2022-10-22T21:39:04.468Z,22.27
2022-10-22T21:41:33.361Z,23.80
2022-10-22T21:44:00.142Z,21.60
2022-10-22T21:46:28.158Z,22.63
2022-10-22T21:48:57.251Z,23.35
2022-10-22T21:51:24.918Z,25.65
2022-10-22T21:56:22.205Z,23.17
2022-10-22T21:58:49.136Z,20.42
2022-10-22T22:01:16.657Z,19.83
2022-10-22T22:03:45.583Z,19.58
2022-10-22T22:06:19.102Z,21.52
2022-10-22T22:08:48.188Z,18.33
2022-10-22T22:11:17.747Z,20.42
2022-10-22T22:13:44.834Z,19.42
2022-10-22T22:16:17.883Z,17.48
2022-10-22T22:18:44.503Z,18.65
2022-10-22T22:21:17.169Z,19.15
2022-10-22T22:23:46.382Z,20.02
2022-10-22T22:26:14.687Z,18.35
2022-10-22T22:28:41.375Z,19.20
2022-10-22T22:31:29.362Z,19.58
2022-10-22T22:34:00.981Z,18.23
2022-10-22T22:36:28.045Z,20.30
2022-10-22T22:38:56.397Z,20.60
2022-10-22T22:41:23.218Z,19.42
2022-10-22T22:43:49.879Z,20.10
2022-10-22T22:46:16.494Z,19.27
2022-10-22T22:48:43.345Z,20.95
2022-10-22T22:51:10.568Z,21.13
2022-10-22T22:53:37.221Z,21.10
2022-10-22T22:56:15.974Z,21.08
2022-10-22T22:58:43.809Z,21.30
2022-10-22T23:01:23.883Z,19.63
2022-10-22T23:04:02.460Z,17.83
2022-10-22T23:06:32.888Z,21.63
2022-10-22T23:09:00.029Z,21.92
2022-10-22T23:11:27.982Z,19.23
2022-10-22T23:13:57.759Z,20.33
2022-10-22T23:16:27.706Z,17.08
2022-10-22T23:18:55.829Z,22.13
2022-10-22T23:21:31.931Z,18.80
2022-10-22T23:26:30.015Z,19.20
2022-10-22T23:29:03.736Z,23.95
2022-10-22T23:31:30.479Z,20.83
2022-10-22T23:33:57.110Z,21.38
2022-10-22T23:36:23.715Z,22.75
2022-10-22T23:38:50.478Z,19.38
2022-10-22T23:41:18.197Z,20.52
2022-10-22T23:43:44.823Z,20.33
2022-10-22T23:46:13.653Z,26.23
2022-10-22T23:48:40.802Z,21.17
2022-10-22T23:51:09.903Z,24.88
2022-10-22T23:53:36.535Z,21.42
2022-10-22T23:56:08.432Z,20.85
2022-10-22T23:58:35.496Z,25.50
